YMEN METAR and TAF | Updated Today

YMEN METAR

Melbourne Essendon Airport

Observation time: 40 min. ago

YMEN 080700Z AUTO 20019KT 9999 // BKN038 BKN047 BKN059 15/06 Q1017

Need help? Read our tutorial on how to read METARs or read the parsed version below.

Melbourne Essendon Airport (YMEN) METAR

  • Weather conditions on Wed, 08 Dec 2021 07:00:00 +0000 (40 min. ago):
  • Present conditions: Dry
  • Clouds: Broken sky at 1158 meters; broken sky at 1433 meters; broken sky at 1798 meters
  • Visibility: Greater than 10 km
  • Wind: 200 degrees at 19 knots
  • Temperature: 15 celsius
  • Dew point: 6 celsius
  • Pressure: 1017 millibars
  • Remarks: None


Useful to know...